Latest Weather Observations for Swanbourne

IDW60801

Issued at 2:43 pm WST Saturday 28 January 2023 (issued every 10 minutes, with the page automatically refreshed every 10 minutes)

About weather observations | Map of weather stations | Latest weather observations for WA | Other Formats
Station Details ID: 009215 Name: SWANBOURNE Lat: -31.96 Lon: 115.76 Height: 40.96 m
Data from the previous 72 hours. | See also: Recent months at Swanbourne
Date/Time
WST
Temp
°C
App
Temp
°C
Dew
Point
°C
Rel
Hum
%
Delta-T
°C
Wind Press
QNH
hPa
Press
MSL
hPa
Rain since
9am
mm
Dir  Spd
km/h
Gust
km/h
Spd
kts
Gust
kts
28/02:30pm 24.7 21.3 15.9 58 5.4 SSW 28 37 15 20 - - 0.0
28/02:00pm 25.1 22.3 15.4 55 5.9 SSW 24 37 13 20 - - 0.0
28/01:30pm 25.3 22.4 15.0 53 6.2 SSW 24 35 13 19 - - 0.0
28/01:00pm 25.7 23.4 15.7 54 6.1 SSW 22 32 12 17 - - 0.0
28/12:30pm 26.5 25.0 15.2 49 6.8 SW 17 24 9 13 - - 0.0
28/12:00pm 27.8 26.4 13.3 40 8.6 ESE 13 20 7 11 - - 0.0
28/11:30am 27.9 26.9 13.4 40 8.6 E 11 20 6 11 - - 0.0
28/11:00am 25.9 23.8 12.4 43 7.8 SE 15 22 8 12 - - 0.0
28/10:30am 25.6 24.0 12.8 45 7.4 ESE 13 24 7 13 - - 0.0
28/10:00am 24.3 22.2 12.3 47 6.9 SE 15 28 8 15 - - 0.0
28/09:30am 22.9 20.6 11.6 49 6.3 SE 15 24 8 13 - - 0.0
28/09:00am 22.3 20.4 11.7 51 5.9 ESE 13 22 7 12 - - 0.0
28/08:30am 21.0 18.2 11.3 54 5.4 ESE 17 28 9 15 - - 0.0
28/08:00am 20.0 17.4 10.7 55 5.1 ESE 15 24 8 13 - - 0.0
28/07:30am 19.0 16.4 10.6 58 4.5 ESE 15 26 8 14 - - 0.0
28/07:00am 18.0 15.2 10.1 60 4.2 SE 15 22 8 12 - - 0.0
28/06:30am 17.3 15.3 10.0 62 3.9 SE 11 17 6 9 - - 0.0
28/06:00am 16.4 14.7 9.8 65 3.5 SE 9 15 5 8 - - 0.0
28/05:30am 16.6 14.4 9.5 63 3.7 ESE 11 22 6 12 - - 0.0
28/05:00am 16.6 14.4 9.5 63 3.7 SE 11 22 6 12 - - 0.0
28/04:30am 17.0 14.4 9.4 61 4.0 ESE 13 20 7 11 - - 0.0
28/04:00am 17.1 14.9 9.3 60 4.1 ESE 11 19 6 10 - - 0.0
28/03:30am 17.7 15.1 9.3 58 4.4 ESE 13 22 7 12 - - 0.0
28/03:00am 18.1 15.6 9.7 58 4.4 ESE 13 20 7 11 - - 0.0
28/02:30am 18.7 15.8 9.8 56 4.7 ESE 15 24 8 13 - - 0.0
28/02:00am 18.8 16.9 10.6 59 4.4 ESE 11 20 6 11 - - 0.0
28/01:30am 19.3 17.1 10.8 58 4.6 E 13 19 7 10 - - 0.0
28/01:00am 18.0 16.9 11.8 67 3.4 ESE 9 13 5 7 - - 0.0
28/12:30am 17.8 17.0 11.1 65 3.6 E 6 7 3 4 - - 0.0
28/12:00am 18.3 17.3 11.1 63 3.9 SE 7 9 4 5 - - 0.0
 
Date/Time
WST
Temp
°C
App
Temp
°C
Dew
Point
°C
Rel
Hum
%
Delta-T
°C
Wind Press
QNH
hPa
Press
MSL
hPa
Rain since
9am
mm
Dir  Spd
km/h
Gust
km/h
Spd
kts
Gust
kts
27/11:30pm 18.6 17.7 11.2 62 4.0 SE 7 9 4 5 - - 0.0
27/11:00pm 19.3 18.5 11.6 61 4.2 SSE 7 11 4 6 - - 0.0
27/10:30pm 20.1 18.7 12.1 60 4.5 SSE 11 17 6 9 - - 0.0
27/10:00pm 20.3 19.2 13.0 63 4.2 S 11 20 6 11 - - 0.0
27/09:30pm 20.6 18.9 13.6 64 4.0 S 15 24 8 13 - - 0.0
27/09:00pm 20.9 18.7 13.4 62 4.3 S 17 24 9 13 - - 0.0
27/08:30pm 20.7 18.5 14.4 67 3.7 S 19 32 10 17 - - 0.0
27/08:00pm 20.6 18.6 13.8 65 3.9 S 17 32 9 17 - - 0.0
27/07:30pm 20.7 17.4 14.1 66 3.8 SSW 24 37 13 20 - - 0.0
27/07:00pm 20.8 17.5 14.9 69 3.5 SSW 26 39 14 21 - - 0.0
27/06:30pm 21.1 17.8 15.0 68 3.6 SSW 26 43 14 23 - - 0.0
27/06:00pm 21.4 17.3 15.0 67 3.8 SSW 30 48 16 26 - - 0.0
27/05:30pm 21.8 17.4 15.2 66 3.9 SSW 32 46 17 25 - - 0.0
27/05:03pm 22.3 17.9 15.2 64 4.2 SSW 32 50 17 27 - - 0.0
27/05:00pm 22.3 17.7 15.2 64 4.2 SSW 33 50 18 27 - - 0.0
27/04:58pm 22.4 18.1 15.5 65 4.1 SSW 32 50 17 27 - - 0.0
27/04:30pm 22.9 18.7 15.7 64 4.3 SSW 32 48 17 26 - - 0.0
27/04:00pm 23.4 19.0 15.7 62 4.6 SSW 33 46 18 25 - - 0.0
27/03:30pm 23.4 19.4 16.2 64 4.4 SSW 32 46 17 25 - - 0.0
27/03:01pm 23.8 20.2 17.1 66 4.1 SSW 32 52 17 28 - - 0.0
27/03:00pm 23.6 19.7 16.9 66 4.1 SSW 33 52 18 28 - - 0.0
27/02:59pm 23.6 20.0 17.3 67 3.9 SSW 32 52 17 28 - - 0.0
27/02:30pm 24.3 21.7 17.8 67 4.1 SW 28 39 15 21 - - 0.0
27/02:00pm 23.9 21.5 17.4 67 4.0 SW 26 37 14 20 - - 0.0
27/01:30pm 24.0 22.1 17.7 68 3.9 SW 24 35 13 19 - - 0.0
27/01:00pm 24.3 21.5 17.3 65 4.3 SW 28 43 15 23 - - 0.0
27/12:30pm 24.5 21.4 17.5 65 4.4 SW 30 43 16 23 - - 0.0
27/12:00pm 24.2 20.7 16.5 62 4.7 SW 30 41 16 22 - - 0.0
27/11:30am 24.2 21.3 16.2 61 4.9 SSW 26 37 14 20 - - 0.0
27/11:00am 23.9 20.8 15.7 60 5.0 SSW 26 39 14 21 - - 0.0
27/10:30am 23.3 19.9 14.8 59 5.1 SSW 26 37 14 20 - - 0.0
27/10:00am 22.5 18.6 15.4 64 4.2 SSW 30 43 16 23 - - 0.0
27/09:30am 22.2 18.3 15.5 66 4.0 SSW 30 46 16 25 - - 0.0
27/09:00am 22.4 20.0 14.3 60 4.8 SSW 20 28 11 15 - - 0.0
27/08:30am 21.6 18.6 13.8 61 4.5 S 22 32 12 17 - - 0.0
27/08:00am 21.1 19.4 12.5 58 4.9 S 13 22 7 12 - - 0.0
27/07:30am 20.1 17.5 12.1 60 4.5 S 17 26 9 14 - - 0.0
27/07:00am 19.0 16.7 11.8 63 4.0 S 15 24 8 13 - - 0.0
27/06:30am 17.9 16.4 11.9 68 3.3 S 11 20 6 11 - - 0.0
27/06:00am 17.7 16.7 12.4 71 2.9 SSE 9 15 5 8 - - 0.0
27/05:30am 18.1 15.3 12.5 70 3.1 S 19 32 10 17 - - 0.0
27/05:00am 18.7 16.7 14.0 74 2.7 S 17 26 9 14 - - 0.0
27/04:30am 18.9 16.7 13.3 70 3.2 S 17 26 9 14 - - 0.0
27/04:00am 18.4 16.1 11.7 65 3.7 S 15 24 8 13 - - 0.0
27/03:30am 18.6 16.7 11.7 64 3.8 S 13 19 7 10 - - 0.0
27/03:00am 18.8 16.7 12.5 67 3.5 S 15 24 8 13 - - 0.0
27/02:30am 19.4 17.5 12.9 66 3.7 S 15 20 8 11 - - 0.0
27/02:00am 19.8 18.1 13.7 68 3.5 S 15 20 8 11 - - 0.0
27/01:30am 19.9 18.7 14.0 69 3.4 S 13 20 7 11 - - 0.0
27/01:00am 20.1 19.1 14.7 71 3.2 S 13 20 7 11 - - 0.0
27/12:30am 20.5 20.4 16.1 76 2.6 S 11 19 6 10 - - 0.0
27/12:00am 21.0 20.5 17.0 78 2.4 S 15 26 8 14 - - 0.0
 
Date/Time
WST
Temp
°C
App
Temp
°C
Dew
Point
°C
Rel
Hum
%
Delta-T
°C
Wind Press
QNH
hPa
Press
MSL
hPa
Rain since
9am
mm
Dir  Spd
km/h
Gust
km/h
Spd
kts
Gust
kts
26/11:30pm 21.1 20.0 17.3 79 2.3 SSW 19 35 10 19 - - 0.0
26/11:00pm 20.9 20.5 17.1 79 2.3 S 15 24 8 13 - - 0.0
26/10:30pm 20.9 19.5 16.9 78 2.4 SSW 20 32 11 17 - - 0.0
26/10:00pm 20.8 20.1 16.4 76 2.7 SSW 15 22 8 12 - - 0.0
26/09:30pm 20.9 20.2 16.5 76 2.7 SSW 15 20 8 11 - - 0.0
26/09:00pm 20.8 20.3 16.0 74 2.9 S 13 24 7 13 - - 0.0
26/08:30pm 21.1 19.1 15.6 71 3.3 SSW 20 33 11 18 - - 0.0
26/08:00pm 21.5 18.8 15.6 69 3.5 SSW 24 39 13 21 - - 0.0
26/07:30pm 21.9 19.1 15.3 66 3.9 SSW 24 39 13 21 - - 0.0
26/07:00pm 22.6 19.8 15.4 64 4.3 SSW 24 35 13 19 - - 0.0
26/06:30pm 23.3 20.3 15.9 63 4.5 SSW 26 37 14 20 - - 0.0
26/06:00pm 23.7 20.8 16.0 62 4.7 SSW 26 37 14 20 - - 0.0
26/05:30pm 23.7 20.6 17.4 68 3.9 SSW 30 44 16 24 - - 0.0
26/05:00pm 23.9 20.9 16.9 65 4.3 SSW 28 37 15 20 - - 0.0
26/04:30pm 24.5 20.7 16.7 61 4.8 SSW 32 43 17 23 - - 0.0
26/04:00pm 24.9 20.7 16.1 58 5.4 SSW 33 48 18 26 - - 0.0
26/03:30pm 25.0 20.8 16.2 58 5.4 SSW 33 46 18 25 - - 0.0
26/03:00pm 26.2 23.9 17.6 59 5.4 SSW 26 39 14 21 - - 0.0
26/02:30pm 26.0 24.2 17.9 61 5.1 SSW 24 35 13 19 - - 0.0
26/02:00pm 26.3 25.2 18.7 63 4.9 SSW 22 32 12 17 - - 0.0
26/01:30pm 25.9 25.1 18.1 62 4.9 SSW 19 30 10 16 - - 0.0
26/01:00pm 25.7 25.1 17.6 61 5.1 SW 17 28 9 15 - - 0.0
26/12:30pm 26.1 24.9 17.5 59 5.4 SW 20 30 11 16 - - 0.0
26/12:00pm 25.0 23.3 17.2 62 4.9 SW 22 32 12 17 - - 0.0
26/11:30am 25.7 24.9 17.1 59 5.4 SW 17 28 9 15 - - 0.0
26/11:00am 27.9 27.0 16.8 50 6.9 SW 17 22 9 12 - - 0.0
26/10:30am 28.3 26.3 10.0 32 10.3 SSE 11 17 6 9 - - 0.0
26/10:00am 27.9 26.3 11.5 36 9.4 ESE 11 17 6 9 - - 0.0
26/09:30am 26.1 24.4 12.5 42 7.9 ESE 13 24 7 13 - - 0.0
26/09:00am 25.0 24.0 13.5 48 6.7 SE 11 20 6 11 - - 0.0
26/08:30am 24.1 22.3 13.3 51 6.3 ESE 15 24 8 13 - - 0.0
26/08:00am 22.3 19.5 13.1 56 5.3 E 20 30 11 16 - - 0.0
26/07:30am 21.1 18.2 13.0 60 4.6 E 20 32 11 17 - - 0.0
26/07:00am 20.0 16.7 12.7 63 4.1 E 22 41 12 22 - - 0.0
26/06:30am 19.3 15.6 12.6 65 3.8 E 24 39 13 21 - - 0.0
26/06:00am 18.6 15.6 12.4 67 3.5 E 20 30 11 16 - - 0.0
26/05:30am 18.5 15.0 12.3 67 3.4 E 22 35 12 19 - - 0.0
26/05:00am 18.8 15.3 12.1 65 3.7 E 22 41 12 22 - - 0.0
26/04:30am 19.3 15.4 12.1 63 4.0 E 24 39 13 21 - - 0.0
26/04:00am 19.6 16.6 11.9 61 4.3 E 19 26 10 14 - - 0.0
26/03:30am 20.2 17.1 11.7 58 4.7 E 19 32 10 17 - - 0.0
26/03:00am 20.6 17.8 11.5 56 5.0 E 17 24 9 13 - - 0.0
26/02:30am 21.4 18.3 11.7 54 5.4 E 19 32 10 17 - - 0.0
26/02:00am 22.1 19.1 11.8 52 5.8 E 19 28 10 15 - - 0.0
26/01:30am 22.8 19.5 11.5 49 6.3 ESE 20 33 11 18 - - 0.0
26/01:00am 23.5 20.1 11.2 46 6.9 ESE 20 33 11 18 - - 0.0
26/12:30am 24.2 20.6 10.5 42 7.6 ESE 20 32 11 17 - - 0.0
26/12:00am 24.3 21.1 9.8 40 7.9 ESE 17 26 9 14 - - 0.0
 
Date/Time
WST
Temp
°C
App
Temp
°C
Dew
Point
°C
Rel
Hum
%
Delta-T
°C
Wind Press
QNH
hPa
Press
MSL
hPa
Rain since
9am
mm
Dir  Spd
km/h
Gust
km/h
Spd
kts
Gust
kts
25/11:30pm 23.0 21.2 12.0 50 6.2 E 13 20 7 11 - - 0.0
25/11:00pm 22.6 22.0 13.4 56 5.3 ESE 9 15 5 8 - - 0.0
25/10:30pm 22.9 22.2 14.2 58 5.1 SE 11 17 6 9 - - 0.0
25/10:00pm 23.4 23.0 15.2 60 4.9 SSE 11 15 6 8 - - 0.0
25/09:30pm 23.6 23.0 15.6 61 4.8 SSE 13 19 7 10 - - 0.0
25/09:00pm 23.3 23.5 16.8 67 4.0 SSE 11 19 6 10 - - 0.0
25/08:30pm 23.5 23.3 16.8 66 4.1 S 13 20 7 11 - - 0.0
25/08:00pm 23.4 23.1 16.4 64 4.3 S 13 24 7 13 - - 0.0
25/07:30pm 23.5 22.4 16.3 64 4.4 S 17 28 9 15 - - 0.0
25/07:00pm 23.7 22.2 16.7 65 4.3 SSW 20 35 11 19 - - 0.0
25/06:30pm 24.2 22.8 17.0 64 4.5 SSW 20 37 11 20 - - 0.0
25/06:00pm 24.4 23.4 17.6 66 4.2 SSW 19 28 10 15 - - 0.0
25/05:30pm 24.4 22.8 17.4 65 4.4 SSW 22 35 12 19 - - 0.0
25/05:00pm 24.7 21.8 16.2 59 5.2 SSW 26 39 14 21 - - 0.0
25/04:30pm 24.6 21.5 16.6 61 4.9 SSW 28 39 15 21 - - 0.0
25/04:00pm 25.2 22.9 16.6 59 5.3 SSW 24 37 13 20 - - 0.0
25/03:30pm 25.5 23.7 16.9 59 5.3 SSW 22 33 12 18 - - 0.0
25/03:00pm 26.0 24.3 17.1 58 5.5 SW 22 35 12 19 - - 0.0

Other formats

Comma delimited format used in spreadsheet applications
http://www.bom.gov.au/fwo/IDW60801/IDW60801.94614.axf

JavaScript Object Notation format (JSON) in row-major order
http://www.bom.gov.au/fwo/IDW60801/IDW60801.94614.json

Data quality

Most of these data are generated automatically and are frequently updated. Quality checks on data are not normally performed. It is possible for incorrect values to appear. Refer to information at About Latest Weather Observations and please check the disclaimer before using these data.